createdAt,value
2019-04-13T00:02:08.660Z,15.38
2019-04-13T00:04:47.944Z,15.30
2019-04-13T00:07:16.583Z,15.65
2019-04-13T00:09:45.087Z,15.20
2019-04-13T00:12:27.743Z,16.10
2019-04-13T00:14:56.429Z,16.73
2019-04-13T00:17:25.008Z,15.93
2019-04-13T00:19:53.619Z,16.32
2019-04-13T00:22:22.141Z,15.53
2019-04-13T00:24:50.817Z,14.93
2019-04-13T00:27:19.534Z,14.93
2019-04-13T00:29:48.113Z,15.18
2019-04-13T00:32:16.680Z,14.53
2019-04-13T00:34:45.364Z,14.00
2019-04-13T00:37:14.118Z,13.75
2019-04-13T00:39:42.745Z,12.50
2019-04-13T00:42:11.411Z,14.40
2019-04-13T00:44:39.912Z,13.75
2019-04-13T00:47:08.485Z,13.03
2019-04-13T00:49:37.172Z,11.43
2019-04-13T00:52:05.812Z,12.45
2019-04-13T00:54:34.378Z,12.23
2019-04-13T00:57:03.153Z,12.95
2019-04-13T00:59:31.791Z,12.35
2019-04-13T01:02:00.447Z,13.85
2019-04-13T01:04:29.223Z,13.65
2019-04-13T01:06:57.786Z,13.62
2019-04-13T01:09:26.427Z,14.05
2019-04-13T01:11:55.096Z,14.28
2019-04-13T01:14:23.720Z,13.08
2019-04-13T01:16:52.292Z,10.55
2019-04-13T01:19:20.929Z,11.95
2019-04-13T01:21:49.430Z,13.25
2019-04-13T01:24:18.112Z,12.50
2019-04-13T01:26:46.748Z,12.58
2019-04-13T01:29:15.243Z,11.80
2019-04-13T01:31:44.140Z,11.40
2019-04-13T01:34:12.782Z,11.25
2019-04-13T01:36:41.474Z,11.50
2019-04-13T01:39:10.053Z,11.05
2019-04-13T01:41:38.615Z,11.80
2019-04-13T01:44:07.484Z,11.00
2019-04-13T01:46:36.122Z,10.65
2019-04-13T01:49:04.769Z,11.08
2019-04-13T01:51:33.439Z,11.18
2019-04-13T01:54:02.174Z,10.60
2019-04-13T01:56:30.815Z,10.70
2019-04-13T01:58:59.359Z,10.53
2019-04-13T02:01:45.783Z,10.55
2019-04-13T02:04:34.200Z,10.38
2019-04-13T02:07:07.109Z,9.95
2019-04-13T02:09:54.119Z,9.98
2019-04-13T02:12:37.560Z,10.32
2019-04-13T02:15:08.148Z,10.60
2019-04-13T02:17:36.787Z,9.15
2019-04-13T02:20:06.529Z,10.38
2019-04-13T02:22:35.133Z,9.75
2019-04-13T02:25:03.968Z,9.90
2019-04-13T02:27:32.534Z,9.83
2019-04-13T02:30:01.426Z,10.13
2019-04-13T02:32:30.340Z,11.55
2019-04-13T02:34:58.858Z,11.53
2019-04-13T02:37:27.474Z,11.10
2019-04-13T02:39:56.050Z,12.10
2019-04-13T02:42:24.614Z,12.43
2019-04-13T02:44:53.299Z,13.48
2019-04-13T02:47:21.882Z,13.85
2019-04-13T02:49:50.462Z,11.75
2019-04-13T02:52:19.079Z,11.40
2019-04-13T02:54:47.718Z,11.45
2019-04-13T02:57:16.281Z,10.65
2019-04-13T02:59:44.881Z,11.85
2019-04-13T03:02:13.520Z,11.70
2019-04-13T03:04:42.559Z,12.43
2019-04-13T03:07:11.234Z,12.37
2019-04-13T03:09:39.803Z,12.65
2019-04-13T03:12:08.438Z,12.65
2019-04-13T03:14:37.109Z,13.32
2019-04-13T03:17:09.790Z,12.82
2019-04-13T03:19:39.939Z,11.80
2019-04-13T03:22:08.737Z,12.33
2019-04-13T03:24:37.365Z,10.60
2019-04-13T03:27:06.013Z,11.08
2019-04-13T03:29:34.584Z,10.40
2019-04-13T03:32:03.155Z,10.35
2019-04-13T03:34:31.806Z,10.65
2019-04-13T03:37:00.543Z,9.95
2019-04-13T03:39:29.169Z,10.03
2019-04-13T03:41:57.741Z,10.03
2019-04-13T03:44:26.495Z,9.85
2019-04-13T03:46:55.059Z,10.05
2019-04-13T03:49:23.626Z,10.15
2019-04-13T03:51:52.344Z,9.48
2019-04-13T03:54:20.982Z,10.70
2019-04-13T03:56:49.626Z,9.48
2019-04-13T03:59:18.205Z,8.85
2019-04-13T04:01:46.776Z,10.10
2019-04-13T04:04:15.281Z,10.38
2019-04-13T04:06:43.856Z,11.35
2019-04-13T04:09:12.496Z,11.35
2019-04-13T04:11:41.114Z,10.90
2019-04-13T04:14:09.753Z,10.98
2019-04-13T04:16:38.688Z,11.33
2019-04-13T04:19:07.361Z,13.58
2019-04-13T04:21:36.008Z,14.23
2019-04-13T04:24:04.642Z,16.60
2019-04-13T04:26:33.313Z,18.30
2019-04-13T04:29:01.949Z,16.60
2019-04-13T04:31:30.518Z,14.45
2019-04-13T04:33:59.136Z,15.38
2019-04-13T04:36:27.703Z,13.83
2019-04-13T04:38:56.364Z,13.20
2019-04-13T04:41:25.108Z,14.25
2019-04-13T04:43:53.751Z,11.85
2019-04-13T04:46:22.427Z,12.65
2019-04-13T04:48:50.921Z,12.30
2019-04-13T04:51:19.495Z,11.88
2019-04-13T04:53:48.163Z,13.18
2019-04-13T04:56:16.823Z,13.22
2019-04-13T04:58:45.402Z,12.75
2019-04-13T05:01:14.020Z,12.37
2019-04-13T05:03:42.731Z,13.28
2019-04-13T05:06:11.301Z,12.33
2019-04-13T05:08:39.912Z,12.40
2019-04-13T05:11:08.610Z,12.78
2019-04-13T05:13:37.248Z,13.60
2019-04-13T05:16:06.085Z,14.80
2019-04-13T05:18:34.661Z,13.55
2019-04-13T05:21:03.300Z,15.00
2019-04-13T05:23:32.077Z,14.93
2019-04-13T05:26:00.714Z,14.73
2019-04-13T05:28:29.461Z,15.18
2019-04-13T05:30:58.236Z,16.57
2019-04-13T05:33:26.739Z,16.27
2019-04-13T05:35:55.313Z,17.27
2019-04-13T05:38:23.994Z,17.37
2019-04-13T05:40:52.567Z,17.73
2019-04-13T05:43:21.097Z,17.30
2019-04-13T05:45:50.041Z,17.87
2019-04-13T05:48:18.685Z,17.25
2019-04-13T05:50:47.253Z,17.37
2019-04-13T05:53:15.858Z,18.20
2019-04-13T05:55:44.435Z,19.02
2019-04-13T05:58:14.744Z,18.80
2019-04-13T06:00:43.714Z,16.73
2019-04-13T06:03:12.441Z,16.67
2019-04-13T06:05:41.013Z,19.20
2019-04-13T06:08:09.622Z,16.17
2019-04-13T06:10:38.196Z,14.93
2019-04-13T06:13:06.841Z,15.83
2019-04-13T06:15:35.816Z,15.85
2019-04-13T06:18:06.875Z,16.27
2019-04-13T06:20:34.758Z,17.57
2019-04-13T06:23:03.455Z,16.93
2019-04-13T06:25:32.071Z,15.10
2019-04-13T06:28:00.558Z,15.63
2019-04-13T06:30:31.061Z,15.65
2019-04-13T06:33:07.252Z,14.20
2019-04-13T06:35:36.151Z,13.88
2019-04-13T06:38:04.854Z,14.13
2019-04-13T06:40:33.431Z,13.85
2019-04-13T06:43:01.983Z,13.28
2019-04-13T06:45:30.552Z,12.85
2019-04-13T06:48:00.451Z,11.95
2019-04-13T06:50:29.293Z,13.00
2019-04-13T06:52:57.864Z,13.78
2019-04-13T06:58:50.557Z,12.20
2019-04-13T07:01:19.444Z,12.53
2019-04-13T07:03:47.945Z,13.62
2019-04-13T07:06:16.524Z,12.88
2019-04-13T07:08:53.155Z,12.05
2019-04-13T07:11:32.159Z,12.47
2019-04-13T07:14:02.335Z,11.10
2019-04-13T07:16:44.628Z,10.38
2019-04-13T07:19:13.235Z,10.58
2019-04-13T07:21:41.808Z,10.95
2019-04-13T07:24:10.441Z,9.70
2019-04-13T07:26:40.295Z,10.68
2019-04-13T07:29:09.036Z,10.28
2019-04-13T07:31:37.669Z,8.30
2019-04-13T07:34:42.369Z,8.10
2019-04-13T07:37:12.441Z,11.10
2019-04-13T07:39:41.332Z,8.58
2019-04-13T07:42:09.964Z,8.50
2019-04-13T07:44:40.238Z,7.08
2019-04-13T07:47:17.540Z,8.03
2019-04-13T07:49:54.861Z,7.92
2019-04-13T07:52:28.886Z,6.33
2019-04-13T07:54:55.558Z,5.95
2019-04-13T07:57:24.145Z,8.30
2019-04-13T07:59:52.747Z,8.35
2019-04-13T08:02:21.445Z,8.70
2019-04-13T08:04:50.086Z,10.63
2019-04-13T08:07:18.681Z,7.53
2019-04-13T08:09:47.438Z,6.92
2019-04-13T08:12:17.011Z,5.78
2019-04-13T08:14:45.911Z,4.55
2019-04-13T08:17:16.128Z,4.03
2019-04-13T08:19:46.625Z,3.95
2019-04-13T08:22:15.376Z,4.20
2019-04-13T08:24:48.292Z,4.75
2019-04-13T08:27:14.679Z,1.98
2019-04-13T08:29:44.792Z,3.05
2019-04-13T08:32:13.791Z,2.27
2019-04-13T08:34:42.343Z,2.62
2019-04-13T08:37:10.998Z,2.02
2019-04-13T08:39:39.713Z,1.70
2019-04-13T08:42:19.307Z,0.95
2019-04-13T08:44:38.851Z,2.22
2019-04-13T08:47:07.611Z,2.83
2019-04-13T08:49:36.234Z,1.50
2019-04-13T08:52:05.114Z,1.87
2019-04-13T08:54:33.756Z,0.88
2019-04-13T08:57:04.783Z,0.78
2019-04-13T08:59:33.018Z,1.52
2019-04-13T09:02:01.582Z,1.72
2019-04-13T09:04:30.112Z,1.65
2019-04-13T09:06:58.945Z,0.70
2019-04-13T09:09:27.664Z,0.53
2019-04-13T09:11:56.385Z,0.80
2019-04-13T09:14:27.764Z,1.27
2019-04-13T09:16:55.814Z,1.37
2019-04-13T09:19:44.805Z,1.05
2019-04-13T09:22:22.187Z,1.10
2019-04-13T09:24:52.845Z,1.15
2019-04-13T09:27:21.334Z,0.93
2019-04-13T09:29:49.828Z,1.77
2019-04-13T09:32:18.489Z,1.57
2019-04-13T09:34:47.125Z,1.07
2019-04-13T09:37:15.703Z,1.57
2019-04-13T09:39:44.249Z,1.62
2019-04-13T09:42:12.964Z,1.77
2019-04-13T09:44:41.597Z,1.40
2019-04-13T09:47:11.854Z,1.27
2019-04-13T09:49:40.366Z,1.35
2019-04-13T09:52:09.335Z,1.00
2019-04-13T09:54:37.951Z,1.27
2019-04-13T09:57:06.526Z,0.70
2019-04-13T09:59:35.128Z,0.95
2019-04-13T10:02:03.950Z,0.70
2019-04-13T10:04:32.453Z,0.50
2019-04-13T10:07:01.056Z,0.70
2019-04-13T10:09:29.691Z,0.60
2019-04-13T10:12:02.620Z,0.80
2019-04-13T10:14:38.809Z,0.40
2019-04-13T10:17:09.065Z,0.30
2019-04-13T10:19:40.006Z,0.40
2019-04-13T10:22:08.023Z,0.40
2019-04-13T10:24:39.603Z,0.40
2019-04-13T10:27:09.017Z,0.60
2019-04-13T10:29:37.995Z,0.70
2019-04-13T10:32:06.664Z,0.70
2019-04-13T10:34:35.237Z,0.90
2019-04-13T10:37:04.080Z,0.80
2019-04-13T10:39:32.635Z,0.60
2019-04-13T10:42:01.196Z,1.05
2019-04-13T10:44:31.498Z,0.70
2019-04-13T10:47:02.782Z,0.70
2019-04-13T10:49:49.145Z,0.98
2019-04-13T10:52:20.861Z,2.70
2019-04-13T10:54:49.704Z,1.50
2019-04-13T10:57:18.427Z,1.82
2019-04-13T10:59:50.597Z,1.02
2019-04-13T11:02:22.245Z,1.00
2019-04-13T11:04:47.939Z,0.60
2019-04-13T11:07:16.527Z,1.05
2019-04-13T11:09:45.077Z,1.07
2019-04-13T11:12:13.675Z,1.10
2019-04-13T11:14:42.307Z,0.80
2019-04-13T11:17:12.336Z,0.57
2019-04-13T11:19:41.267Z,0.75
2019-04-13T11:22:09.913Z,0.40
2019-04-13T11:24:38.482Z,0.40
2019-04-13T11:27:07.378Z,0.30
2019-04-13T11:29:36.012Z,0.30
2019-04-13T11:32:04.854Z,0.20
2019-04-13T11:34:33.643Z,0.20
2019-04-13T11:37:02.212Z,0.20
2019-04-13T11:39:34.347Z,0.30
2019-04-13T11:42:18.664Z,0.40
2019-04-13T11:45:05.140Z,0.20
2019-04-13T11:47:35.399Z,0.20
2019-04-13T11:50:04.983Z,0.28
2019-04-13T11:52:33.549Z,0.40
2019-04-13T11:55:02.081Z,0.30
2019-04-13T11:57:30.659Z,0.30
2019-04-13T11:59:59.274Z,0.20
2019-04-13T12:02:29.555Z,0.20
2019-04-13T12:05:05.782Z,0.20
2019-04-13T12:07:36.051Z,0.20
2019-04-13T12:10:14.273Z,0.20
2019-04-13T12:12:47.278Z,0.20
2019-04-13T12:15:26.447Z,0.15
2019-04-13T12:18:05.815Z,0.10
2019-04-13T12:20:41.864Z,0.10
2019-04-13T12:23:10.634Z,0.20
2019-04-13T12:25:40.384Z,0.10
2019-04-13T12:28:09.172Z,0.10
2019-04-13T12:30:42.733Z,0.10
2019-04-13T12:33:10.751Z,0.10
2019-04-13T12:35:39.469Z,0.30
2019-04-13T12:38:10.423Z,0.50
2019-04-13T12:40:46.303Z,0.30
2019-04-13T12:43:15.541Z,0.40
2019-04-13T12:45:44.241Z,0.30
2019-04-13T12:48:17.588Z,0.30
2019-04-13T12:50:43.191Z,0.20
2019-04-13T12:53:11.569Z,0.72
2019-04-13T12:55:40.182Z,0.30
2019-04-13T12:58:08.783Z,0.20
2019-04-13T13:00:44.830Z,0.20
2019-04-13T13:03:15.073Z,0.30
2019-04-13T13:05:56.629Z,0.30
2019-04-13T13:08:25.313Z,0.30
2019-04-13T13:10:53.947Z,0.30
2019-04-13T13:13:22.573Z,0.50
2019-04-13T13:15:51.106Z,0.50
2019-04-13T13:18:19.815Z,0.28
2019-04-13T13:20:48.444Z,0.30
2019-04-13T13:23:17.611Z,0.47
2019-04-13T13:25:48.629Z,1.20
2019-04-13T13:28:16.539Z,1.10
2019-04-13T13:30:45.281Z,1.00
2019-04-13T13:33:13.846Z,0.40
2019-04-13T13:35:42.553Z,0.45
2019-04-13T13:38:11.427Z,0.20
2019-04-13T13:40:39.922Z,0.20
2019-04-13T13:43:11.086Z,0.20
2019-04-13T13:45:40.158Z,0.20
2019-04-13T13:48:08.776Z,0.20
2019-04-13T13:50:37.329Z,0.10
2019-04-13T13:53:10.189Z,0.20
2019-04-13T13:55:36.276Z,0.10
2019-04-13T13:58:10.309Z,0.17
2019-04-13T14:00:52.377Z,0.20
2019-04-13T14:03:21.377Z,0.20
2019-04-13T14:05:50.032Z,0.30
2019-04-13T14:08:18.707Z,0.40
2019-04-13T14:10:48.715Z,0.30
2019-04-13T14:13:17.795Z,0.30
2019-04-13T14:15:46.537Z,0.28
2019-04-13T14:18:15.103Z,0.30
2019-04-13T14:20:43.644Z,0.30
2019-04-13T14:23:12.237Z,0.20
2019-04-13T14:25:40.869Z,0.20
2019-04-13T14:28:09.437Z,0.20
2019-04-13T14:30:38.104Z,0.20
2019-04-13T14:33:06.730Z,0.20
2019-04-13T14:35:35.436Z,0.20
2019-04-13T14:38:04.188Z,0.20
2019-04-13T14:40:32.738Z,0.10
2019-04-13T14:43:01.399Z,0.10
2019-04-13T14:45:30.221Z,0.17
2019-04-13T14:47:58.848Z,0.10
2019-04-13T14:50:27.479Z,0.20
2019-04-13T14:52:56.259Z,0.30
2019-04-13T14:55:24.753Z,0.30
2019-04-13T14:57:53.312Z,0.20
2019-04-13T15:00:22.326Z,0.20
2019-04-13T15:02:50.885Z,0.20
2019-04-13T15:05:19.396Z,0.20
2019-04-13T15:07:48.170Z,0.30
2019-04-13T15:10:16.837Z,0.20
2019-04-13T15:12:45.465Z,0.10
2019-04-13T15:15:14.239Z,0.10
2019-04-13T15:18:00.091Z,0.10
2019-04-13T15:20:35.332Z,0.20
2019-04-13T15:23:01.567Z,0.30
2019-04-13T15:25:29.418Z,0.20
2019-04-13T15:28:00.029Z,0.20
2019-04-13T15:30:29.076Z,0.10
2019-04-13T15:33:04.876Z,0.10
2019-04-13T15:35:28.478Z,0.10
2019-04-13T15:37:58.119Z,0.20
2019-04-13T15:40:32.256Z,0.10
2019-04-13T15:43:03.399Z,0.20
2019-04-13T15:45:28.943Z,0.20
2019-04-13T15:47:57.789Z,0.20
2019-04-13T15:50:26.328Z,0.20
2019-04-13T15:52:55.356Z,0.20
2019-04-13T15:55:25.197Z,0.20
2019-04-13T15:57:54.187Z,0.30
2019-04-13T16:00:23.122Z,0.30
2019-04-13T16:02:52.070Z,0.30
2019-04-13T16:05:20.555Z,0.40
2019-04-13T16:07:49.380Z,0.30
2019-04-13T16:10:31.926Z,0.40
2019-04-13T16:13:02.485Z,0.40
2019-04-13T16:15:33.664Z,0.40
2019-04-13T16:18:02.584Z,0.40
2019-04-13T16:20:31.745Z,0.40
2019-04-13T16:23:00.495Z,0.30
2019-04-13T16:25:30.654Z,0.40
2019-04-13T16:28:01.915Z,1.00
2019-04-13T16:30:41.426Z,0.70
2019-04-13T16:33:17.772Z,0.50
2019-04-13T16:35:48.054Z,0.42
2019-04-13T16:38:17.681Z,0.70
2019-04-13T16:40:46.348Z,0.50
2019-04-13T16:43:15.874Z,0.50
2019-04-13T16:45:49.273Z,0.50
2019-04-13T16:48:19.572Z,0.90
2019-04-13T16:51:04.783Z,0.50
2019-04-13T16:53:53.918Z,0.40
2019-04-13T16:56:25.191Z,0.40
2019-04-13T16:58:55.517Z,0.60
2019-04-13T17:01:25.720Z,0.60
2019-04-13T17:04:12.952Z,0.50
2019-04-13T17:06:41.958Z,0.50
2019-04-13T17:09:10.505Z,0.60
2019-04-13T17:11:39.802Z,0.60
2019-04-13T17:14:08.431Z,0.50
2019-04-13T17:16:37.062Z,0.60
2019-04-13T17:19:07.649Z,0.70
2019-04-13T17:21:37.931Z,0.68
2019-04-13T17:24:11.563Z,0.50
2019-04-13T17:26:42.318Z,0.60
2019-04-13T17:29:13.226Z,0.72
2019-04-13T17:31:53.530Z,0.70
2019-04-13T17:34:41.980Z,0.50
2019-04-13T17:37:12.709Z,0.60
2019-04-13T17:39:41.464Z,0.70
2019-04-13T17:42:12.038Z,0.88
2019-04-13T17:44:43.947Z,0.82
2019-04-13T17:47:32.997Z,1.07
2019-04-13T17:50:03.731Z,1.12
2019-04-13T17:52:50.829Z,1.15
2019-04-13T17:55:27.669Z,1.07
2019-04-13T17:58:00.432Z,4.15
2019-04-13T18:00:30.938Z,5.17
2019-04-13T18:03:13.540Z,1.37
2019-04-13T18:05:46.598Z,2.33
2019-04-13T18:08:42.622Z,1.00
2019-04-13T18:11:13.120Z,0.90
2019-04-13T18:13:52.752Z,1.02
2019-04-13T18:16:34.665Z,1.12
2019-04-13T18:19:04.989Z,1.20
2019-04-13T18:21:34.785Z,0.90
2019-04-13T18:24:03.796Z,0.98
2019-04-13T18:26:33.624Z,1.15
2019-04-13T18:29:03.151Z,1.02
2019-04-13T18:31:31.995Z,0.80
2019-04-13T18:34:01.770Z,1.20
2019-04-13T18:36:30.589Z,0.60
2019-04-13T18:39:00.394Z,0.80
2019-04-13T18:41:29.090Z,0.65
2019-04-13T18:43:58.629Z,1.67
2019-04-13T18:46:27.704Z,1.42
2019-04-13T18:48:56.624Z,1.60
2019-04-13T18:51:25.533Z,1.98
2019-04-13T18:53:55.099Z,1.67
2019-04-13T18:56:25.135Z,1.82
2019-04-13T18:58:54.417Z,1.45
2019-04-13T19:01:24.637Z,1.07
2019-04-13T19:03:53.864Z,1.00
2019-04-13T19:06:27.337Z,1.10
2019-04-13T19:08:52.808Z,2.12
2019-04-13T19:11:21.652Z,1.45
2019-04-13T19:13:50.284Z,1.75
2019-04-13T19:16:18.840Z,1.92
2019-04-13T19:18:47.612Z,1.20
2019-04-13T19:21:16.247Z,1.90
2019-04-13T19:23:44.868Z,1.27
2019-04-13T19:26:13.542Z,1.85
2019-04-13T19:28:42.033Z,2.62
2019-04-13T19:31:10.663Z,2.72
2019-04-13T19:33:39.325Z,3.27
2019-04-13T19:36:07.887Z,3.72
2019-04-13T19:38:36.371Z,4.83
2019-04-13T19:41:05.073Z,4.37
2019-04-13T19:43:33.702Z,3.35
2019-04-13T19:46:02.270Z,5.17
2019-04-13T19:48:30.806Z,5.47
2019-04-13T19:50:59.440Z,4.53
2019-04-13T19:53:44.764Z,3.58
2019-04-13T19:56:14.963Z,3.50
2019-04-13T19:58:43.452Z,3.60
2019-04-13T20:01:13.703Z,3.80
2019-04-13T20:03:42.268Z,4.17
2019-04-13T20:06:18.712Z,4.03
2019-04-13T20:08:41.270Z,3.75
2019-04-13T20:11:09.899Z,1.82
2019-04-13T20:13:46.657Z,1.40
2019-04-13T20:16:10.301Z,3.47
2019-04-13T20:18:39.201Z,2.60
2019-04-13T20:21:07.831Z,1.85
2019-04-13T20:23:36.429Z,1.35
2019-04-13T20:26:05.625Z,1.62
2019-04-13T20:28:35.389Z,1.70
2019-04-13T20:31:05.173Z,2.72
2019-04-13T20:33:34.923Z,1.30
2019-04-13T20:36:09.889Z,1.07
2019-04-13T20:38:34.739Z,1.15
2019-04-13T20:41:08.363Z,0.90
2019-04-13T20:43:49.834Z,0.68
2019-04-13T20:46:08.153Z,1.05
2019-04-13T20:48:37.909Z,0.78
2019-04-13T20:51:08.155Z,0.70
2019-04-13T20:53:37.101Z,0.70
2019-04-13T20:56:05.764Z,0.90
2019-04-13T20:58:34.213Z,1.22
2019-04-13T21:01:03.691Z,1.42
2019-04-13T21:03:33.738Z,1.30
2019-04-13T21:06:02.508Z,1.35
2019-04-13T21:08:32.233Z,0.95
2019-04-13T21:11:00.979Z,0.70
2019-04-13T21:13:29.609Z,0.50
2019-04-13T21:15:59.585Z,0.60
2019-04-13T21:18:28.323Z,0.82
2019-04-13T21:20:57.789Z,0.90
2019-04-13T21:23:27.631Z,0.80
2019-04-13T21:25:57.566Z,0.90
2019-04-13T21:28:27.570Z,1.00
2019-04-13T21:30:56.255Z,1.10
2019-04-13T21:33:25.784Z,1.10
2019-04-13T21:35:55.676Z,1.05
2019-04-13T21:38:25.686Z,0.78
2019-04-13T21:40:54.230Z,1.35
2019-04-13T21:43:23.715Z,1.87
2019-04-13T21:45:53.597Z,1.35
2019-04-13T21:48:22.297Z,2.00
2019-04-13T21:50:56.517Z,1.72
2019-04-13T21:53:33.357Z,1.57
2019-04-13T21:56:02.216Z,1.80
2019-04-13T21:58:31.590Z,1.22
2019-04-13T22:01:10.639Z,1.20
2019-04-13T22:03:40.496Z,0.88
2019-04-13T22:06:10.253Z,1.22
2019-04-13T22:08:38.839Z,0.93
2019-04-13T22:11:08.304Z,1.20
2019-04-13T22:13:38.129Z,1.10
2019-04-13T22:16:08.070Z,0.90
2019-04-13T22:18:36.772Z,0.80
2019-04-13T22:21:05.413Z,0.70
2019-04-13T22:23:34.620Z,0.70
2019-04-13T22:26:04.465Z,0.68
2019-04-13T22:28:34.808Z,0.70
2019-04-13T22:31:22.044Z,0.90
2019-04-13T22:33:50.766Z,1.00
2019-04-13T22:36:20.959Z,1.02
2019-04-13T22:38:50.043Z,1.00
2019-04-13T22:41:19.896Z,0.80
2019-04-13T22:43:48.633Z,0.90
2019-04-13T22:46:17.355Z,0.80
2019-04-13T22:49:06.065Z,0.75
2019-04-13T22:51:48.989Z,0.98
2019-04-13T22:54:32.155Z,0.78
2019-04-13T22:57:02.519Z,0.90
2019-04-13T22:59:31.559Z,1.10
2019-04-13T23:02:01.788Z,1.07
2019-04-13T23:04:30.470Z,1.00
2019-04-13T23:06:59.656Z,0.80
2019-04-13T23:09:28.314Z,1.10
2019-04-13T23:11:56.958Z,0.82
2019-04-13T23:14:26.466Z,1.17
2019-04-13T23:16:56.256Z,0.88
2019-04-13T23:19:24.931Z,0.98
2019-04-13T23:21:53.490Z,0.90
2019-04-13T23:24:23.439Z,0.90
2019-04-13T23:26:52.051Z,0.93
2019-04-13T23:29:21.400Z,0.90
2019-04-13T23:31:50.204Z,1.27
2019-04-13T23:34:18.890Z,0.90
2019-04-13T23:36:48.632Z,0.98
2019-04-13T23:39:17.379Z,0.93
2019-04-13T23:41:47.292Z,0.80
2019-04-13T23:44:16.221Z,0.80
2019-04-13T23:46:46.085Z,0.90
2019-04-13T23:49:14.738Z,0.80
2019-04-13T23:51:44.555Z,0.78
2019-04-13T23:54:13.360Z,0.85
2019-04-13T23:56:43.644Z,0.70
2019-04-13T23:59:13.805Z,0.72
